sensor_id;sensor_type;location;lat;lon;timestamp;P1;durP1;ratioP1;P2;durP2;ratioP2
11651;SDS011;5882;48.818;9.114;2023-02-07T00:01:07;3.23;;;2.93;;
11651;SDS011;5882;48.818;9.114;2023-02-07T00:03:42;3.53;;;3.17;;
11651;SDS011;5882;48.818;9.114;2023-02-07T00:06:10;3.83;;;3.43;;
11651;SDS011;5882;48.818;9.114;2023-02-07T00:08:37;5.27;;;3.23;;
11651;SDS011;5882;48.818;9.114;2023-02-07T00:11:04;4.17;;;3.20;;
11651;SDS011;5882;48.818;9.114;2023-02-07T00:13:31;2.93;;;2.67;;
11651;SDS011;5882;48.818;9.114;2023-02-07T00:15:57;2.90;;;2.63;;
11651;SDS011;5882;48.818;9.114;2023-02-07T00:18:26;3.17;;;2.60;;
11651;SDS011;5882;48.818;9.114;2023-02-07T00:20:58;3.17;;;2.80;;
11651;SDS011;5882;48.818;9.114;2023-02-07T00:23:24;3.43;;;2.73;;
11651;SDS011;5882;48.818;9.114;2023-02-07T00:25:51;3.60;;;3.03;;
11651;SDS011;5882;48.818;9.114;2023-02-07T00:28:18;4.17;;;3.43;;
11651;SDS011;5882;48.818;9.114;2023-02-07T00:30:44;3.80;;;2.90;;
11651;SDS011;5882;48.818;9.114;2023-02-07T00:33:11;3.33;;;3.03;;
11651;SDS011;5882;48.818;9.114;2023-02-07T00:35:37;3.73;;;2.97;;
11651;SDS011;5882;48.818;9.114;2023-02-07T00:38:05;3.90;;;2.73;;
11651;SDS011;5882;48.818;9.114;2023-02-07T00:40:32;2.70;;;2.27;;
11651;SDS011;5882;48.818;9.114;2023-02-07T00:42:59;3.40;;;3.10;;
11651;SDS011;5882;48.818;9.114;2023-02-07T00:45:25;3.23;;;2.67;;
11651;SDS011;5882;48.818;9.114;2023-02-07T00:47:52;3.40;;;2.97;;
11651;SDS011;5882;48.818;9.114;2023-02-07T00:50:18;3.63;;;3.33;;
11651;SDS011;5882;48.818;9.114;2023-02-07T00:52:45;3.57;;;3.17;;
11651;SDS011;5882;48.818;9.114;2023-02-07T00:55:13;3.47;;;2.50;;
11651;SDS011;5882;48.818;9.114;2023-02-07T00:57:39;5.13;;;3.20;;
11651;SDS011;5882;48.818;9.114;2023-02-07T01:00:06;3.87;;;2.97;;
11651;SDS011;5882;48.818;9.114;2023-02-07T01:02:35;4.00;;;3.20;;
11651;SDS011;5882;48.818;9.114;2023-02-07T01:05:01;3.87;;;2.90;;
11651;SDS011;5882;48.818;9.114;2023-02-07T01:07:28;4.83;;;3.07;;
11651;SDS011;5882;48.818;9.114;2023-02-07T01:09:56;4.00;;;3.07;;
11651;SDS011;5882;48.818;9.114;2023-02-07T01:12:24;3.80;;;2.90;;
11651;SDS011;5882;48.818;9.114;2023-02-07T01:14:52;3.53;;;2.80;;
11651;SDS011;5882;48.818;9.114;2023-02-07T01:17:18;3.87;;;3.50;;
11651;SDS011;5882;48.818;9.114;2023-02-07T01:19:45;5.20;;;3.63;;
11651;SDS011;5882;48.818;9.114;2023-02-07T01:22:11;4.87;;;3.57;;
11651;SDS011;5882;48.818;9.114;2023-02-07T01:24:38;3.60;;;2.90;;
11651;SDS011;5882;48.818;9.114;2023-02-07T01:27:04;4.57;;;3.37;;
11651;SDS011;5882;48.818;9.114;2023-02-07T01:29:32;5.07;;;3.37;;
11651;SDS011;5882;48.818;9.114;2023-02-07T01:31:59;4.47;;;3.13;;
11651;SDS011;5882;48.818;9.114;2023-02-07T01:34:25;3.83;;;3.43;;
11651;SDS011;5882;48.818;9.114;2023-02-07T01:36:52;6.23;;;3.90;;
11651;SDS011;5882;48.818;9.114;2023-02-07T01:39:18;5.03;;;3.40;;
11651;SDS011;5882;48.818;9.114;2023-02-07T01:41:45;5.40;;;3.07;;
11651;SDS011;5882;48.818;9.114;2023-02-07T01:46:56;3.60;;;3.27;;
11651;SDS011;5882;48.818;9.114;2023-02-07T01:49:23;3.60;;;2.90;;
11651;SDS011;5882;48.818;9.114;2023-02-07T01:51:51;3.87;;;3.30;;
11651;SDS011;5882;48.818;9.114;2023-02-07T01:54:19;5.37;;;3.63;;
11651;SDS011;5882;48.818;9.114;2023-02-07T01:56:47;5.10;;;4.03;;
11651;SDS011;5882;48.818;9.114;2023-02-07T01:59:16;3.63;;;3.10;;
11651;SDS011;5882;48.818;9.114;2023-02-07T02:01:42;8.17;;;3.70;;
11651;SDS011;5882;48.818;9.114;2023-02-07T02:04:12;5.17;;;3.80;;
11651;SDS011;5882;48.818;9.114;2023-02-07T02:06:41;5.37;;;4.17;;
11651;SDS011;5882;48.818;9.114;2023-02-07T02:09:09;4.67;;;3.33;;
11651;SDS011;5882;48.818;9.114;2023-02-07T02:11:44;5.40;;;4.00;;
11651;SDS011;5882;48.818;9.114;2023-02-07T02:14:16;5.07;;;4.20;;
11651;SDS011;5882;48.818;9.114;2023-02-07T02:16:47;4.30;;;3.37;;
11651;SDS011;5882;48.818;9.114;2023-02-07T02:22:10;5.70;;;3.70;;
11651;SDS011;5882;48.818;9.114;2023-02-07T02:24:50;4.57;;;3.60;;
11651;SDS011;5882;48.818;9.114;2023-02-07T02:27:26;5.13;;;4.00;;
11651;SDS011;5882;48.818;9.114;2023-02-07T02:30:12;7.20;;;4.30;;
11651;SDS011;5882;48.818;9.114;2023-02-07T02:33:00;7.03;;;4.20;;
11651;SDS011;5882;48.818;9.114;2023-02-07T02:35:30;5.60;;;4.37;;
11651;SDS011;5882;48.818;9.114;2023-02-07T02:38:00;5.03;;;4.10;;
11651;SDS011;5882;48.818;9.114;2023-02-07T02:40:30;5.13;;;4.63;;
11651;SDS011;5882;48.818;9.114;2023-02-07T02:42:59;5.37;;;3.43;;
11651;SDS011;5882;48.818;9.114;2023-02-07T02:45:27;4.73;;;4.00;;
11651;SDS011;5882;48.818;9.114;2023-02-07T02:47:55;7.23;;;3.80;;
11651;SDS011;5882;48.818;9.114;2023-02-07T02:50:24;4.77;;;4.30;;
11651;SDS011;5882;48.818;9.114;2023-02-07T02:52:52;5.43;;;4.60;;
11651;SDS011;5882;48.818;9.114;2023-02-07T02:55:27;6.37;;;4.30;;
11651;SDS011;5882;48.818;9.114;2023-02-07T02:57:59;5.30;;;4.10;;
11651;SDS011;5882;48.818;9.114;2023-02-07T03:00:31;5.10;;;4.03;;
11651;SDS011;5882;48.818;9.114;2023-02-07T03:03:05;6.17;;;4.70;;
11651;SDS011;5882;48.818;9.114;2023-02-07T03:05:42;5.27;;;4.00;;
11651;SDS011;5882;48.818;9.114;2023-02-07T03:08:15;4.87;;;3.73;;
11651;SDS011;5882;48.818;9.114;2023-02-07T03:10:45;5.53;;;4.60;;
11651;SDS011;5882;48.818;9.114;2023-02-07T03:13:14;6.13;;;4.20;;
11651;SDS011;5882;48.818;9.114;2023-02-07T03:15:47;6.63;;;4.90;;
11651;SDS011;5882;48.818;9.114;2023-02-07T03:18:19;7.77;;;4.30;;
11651;SDS011;5882;48.818;9.114;2023-02-07T03:20:52;4.97;;;4.47;;
11651;SDS011;5882;48.818;9.114;2023-02-07T03:23:20;5.47;;;4.47;;
11651;SDS011;5882;48.818;9.114;2023-02-07T03:25:50;8.03;;;4.90;;
11651;SDS011;5882;48.818;9.114;2023-02-07T03:28:17;7.03;;;4.47;;
11651;SDS011;5882;48.818;9.114;2023-02-07T03:30:51;4.83;;;4.30;;
11651;SDS011;5882;48.818;9.114;2023-02-07T03:33:19;6.50;;;5.30;;
11651;SDS011;5882;48.818;9.114;2023-02-07T03:35:47;6.50;;;5.10;;
11651;SDS011;5882;48.818;9.114;2023-02-07T03:38:17;6.93;;;5.20;;
11651;SDS011;5882;48.818;9.114;2023-02-07T03:40:51;5.87;;;4.63;;
11651;SDS011;5882;48.818;9.114;2023-02-07T03:43:19;5.20;;;4.27;;
11651;SDS011;5882;48.818;9.114;2023-02-07T03:45:50;5.80;;;4.53;;
11651;SDS011;5882;48.818;9.114;2023-02-07T03:48:17;5.67;;;5.00;;
11651;SDS011;5882;48.818;9.114;2023-02-07T03:50:44;6.13;;;4.37;;
11651;SDS011;5882;48.818;9.114;2023-02-07T03:53:12;6.60;;;4.47;;
11651;SDS011;5882;48.818;9.114;2023-02-07T03:55:40;4.70;;;4.07;;
11651;SDS011;5882;48.818;9.114;2023-02-07T03:58:07;8.40;;;4.73;;
11651;SDS011;5882;48.818;9.114;2023-02-07T04:00:34;6.33;;;4.73;;
11651;SDS011;5882;48.818;9.114;2023-02-07T04:03:01;6.07;;;4.70;;
11651;SDS011;5882;48.818;9.114;2023-02-07T04:05:27;6.73;;;4.40;;
11651;SDS011;5882;48.818;9.114;2023-02-07T04:07:54;5.90;;;4.40;;
11651;SDS011;5882;48.818;9.114;2023-02-07T04:10:34;5.13;;;4.13;;
11651;SDS011;5882;48.818;9.114;2023-02-07T04:13:02;6.10;;;4.53;;
11651;SDS011;5882;48.818;9.114;2023-02-07T04:15:28;6.10;;;5.20;;
11651;SDS011;5882;48.818;9.114;2023-02-07T04:17:55;7.57;;;4.73;;
11651;SDS011;5882;48.818;9.114;2023-02-07T04:20:22;6.57;;;5.10;;
11651;SDS011;5882;48.818;9.114;2023-02-07T04:22:48;6.20;;;4.53;;
11651;SDS011;5882;48.818;9.114;2023-02-07T04:25:15;7.03;;;5.20;;
11651;SDS011;5882;48.818;9.114;2023-02-07T04:27:45;5.97;;;4.77;;
11651;SDS011;5882;48.818;9.114;2023-02-07T04:30:13;6.37;;;4.77;;
11651;SDS011;5882;48.818;9.114;2023-02-07T04:32:39;5.27;;;4.27;;
11651;SDS011;5882;48.818;9.114;2023-02-07T04:35:07;9.53;;;5.57;;
11651;SDS011;5882;48.818;9.114;2023-02-07T04:37:33;5.37;;;4.30;;
11651;SDS011;5882;48.818;9.114;2023-02-07T04:40:00;6.00;;;4.83;;
11651;SDS011;5882;48.818;9.114;2023-02-07T04:42:26;5.77;;;4.87;;
11651;SDS011;5882;48.818;9.114;2023-02-07T04:44:53;6.83;;;5.00;;
11651;SDS011;5882;48.818;9.114;2023-02-07T04:47:21;10.00;;;5.27;;
11651;SDS011;5882;48.818;9.114;2023-02-07T04:49:48;6.67;;;5.40;;
11651;SDS011;5882;48.818;9.114;2023-02-07T04:52:24;7.73;;;5.20;;
11651;SDS011;5882;48.818;9.114;2023-02-07T04:54:54;7.07;;;5.17;;
11651;SDS011;5882;48.818;9.114;2023-02-07T04:57:21;7.43;;;4.93;;
11651;SDS011;5882;48.818;9.114;2023-02-07T04:59:48;8.10;;;5.13;;
11651;SDS011;5882;48.818;9.114;2023-02-07T05:02:14;7.27;;;5.03;;
11651;SDS011;5882;48.818;9.114;2023-02-07T05:04:42;5.67;;;4.70;;
11651;SDS011;5882;48.818;9.114;2023-02-07T05:07:16;7.07;;;5.00;;
11651;SDS011;5882;48.818;9.114;2023-02-07T05:09:43;5.77;;;4.37;;
11651;SDS011;5882;48.818;9.114;2023-02-07T05:12:13;5.40;;;4.03;;
11651;SDS011;5882;48.818;9.114;2023-02-07T05:15:30;6.23;;;5.40;;
11651;SDS011;5882;48.818;9.114;2023-02-07T05:17:52;7.87;;;4.20;;
11651;SDS011;5882;48.818;9.114;2023-02-07T05:20:20;5.33;;;4.07;;
11651;SDS011;5882;48.818;9.114;2023-02-07T05:22:47;4.53;;;4.10;;
11651;SDS011;5882;48.818;9.114;2023-02-07T05:25:14;5.20;;;4.70;;
11651;SDS011;5882;48.818;9.114;2023-02-07T05:27:41;5.50;;;3.97;;
11651;SDS011;5882;48.818;9.114;2023-02-07T05:30:11;5.77;;;4.90;;
11651;SDS011;5882;48.818;9.114;2023-02-07T05:32:40;6.43;;;4.73;;
11651;SDS011;5882;48.818;9.114;2023-02-07T05:35:26;5.13;;;4.63;;
11651;SDS011;5882;48.818;9.114;2023-02-07T05:37:59;5.37;;;4.47;;
11651;SDS011;5882;48.818;9.114;2023-02-07T05:40:29;6.03;;;4.63;;
11651;SDS011;5882;48.818;9.114;2023-02-07T05:42:56;5.77;;;4.73;;
11651;SDS011;5882;48.818;9.114;2023-02-07T05:45:23;6.73;;;4.77;;
11651;SDS011;5882;48.818;9.114;2023-02-07T05:47:50;5.53;;;4.63;;
11651;SDS011;5882;48.818;9.114;2023-02-07T05:50:16;7.10;;;4.60;;
11651;SDS011;5882;48.818;9.114;2023-02-07T05:52:44;5.13;;;4.50;;
11651;SDS011;5882;48.818;9.114;2023-02-07T05:55:11;7.80;;;5.37;;
11651;SDS011;5882;48.818;9.114;2023-02-07T05:57:40;5.93;;;4.63;;
11651;SDS011;5882;48.818;9.114;2023-02-07T06:00:07;6.60;;;5.37;;
11651;SDS011;5882;48.818;9.114;2023-02-07T06:02:36;6.30;;;5.00;;
11651;SDS011;5882;48.818;9.114;2023-02-07T06:08:14;7.50;;;4.70;;
11651;SDS011;5882;48.818;9.114;2023-02-07T06:10:40;6.47;;;4.53;;
11651;SDS011;5882;48.818;9.114;2023-02-07T06:13:30;5.53;;;4.00;;
11651;SDS011;5882;48.818;9.114;2023-02-07T06:16:19;5.50;;;4.10;;
11651;SDS011;5882;48.818;9.114;2023-02-07T06:18:46;7.53;;;4.83;;
11651;SDS011;5882;48.818;9.114;2023-02-07T06:21:15;5.17;;;4.27;;
11651;SDS011;5882;48.818;9.114;2023-02-07T06:23:43;7.10;;;5.37;;
11651;SDS011;5882;48.818;9.114;2023-02-07T06:29:38;6.70;;;4.50;;
11651;SDS011;5882;48.818;9.114;2023-02-07T06:32:08;6.27;;;3.97;;
11651;SDS011;5882;48.818;9.114;2023-02-07T06:34:41;7.40;;;4.73;;
11651;SDS011;5882;48.818;9.114;2023-02-07T06:37:07;7.10;;;4.93;;
11651;SDS011;5882;48.818;9.114;2023-02-07T06:42:39;5.07;;;3.90;;
11651;SDS011;5882;48.818;9.114;2023-02-07T06:45:09;6.57;;;4.77;;
11651;SDS011;5882;48.818;9.114;2023-02-07T06:47:36;6.17;;;4.50;;
11651;SDS011;5882;48.818;9.114;2023-02-07T06:53:09;5.13;;;4.17;;
11651;SDS011;5882;48.818;9.114;2023-02-07T06:55:36;6.40;;;5.30;;
11651;SDS011;5882;48.818;9.114;2023-02-07T07:04:12;7.37;;;4.97;;
11651;SDS011;5882;48.818;9.114;2023-02-07T07:06:39;5.83;;;4.20;;
11651;SDS011;5882;48.818;9.114;2023-02-07T07:09:06;6.40;;;4.53;;
11651;SDS011;5882;48.818;9.114;2023-02-07T07:11:33;8.80;;;5.27;;
11651;SDS011;5882;48.818;9.114;2023-02-07T07:13:59;6.80;;;5.23;;
11651;SDS011;5882;48.818;9.114;2023-02-07T07:16:26;4.43;;;3.90;;
11651;SDS011;5882;48.818;9.114;2023-02-07T07:18:56;8.00;;;5.53;;
11651;SDS011;5882;48.818;9.114;2023-02-07T07:21:26;6.70;;;5.07;;
11651;SDS011;5882;48.818;9.114;2023-02-07T07:23:53;9.13;;;5.20;;
11651;SDS011;5882;48.818;9.114;2023-02-07T07:26:19;6.53;;;4.67;;
11651;SDS011;5882;48.818;9.114;2023-02-07T07:28:49;8.03;;;5.23;;
11651;SDS011;5882;48.818;9.114;2023-02-07T07:31:22;8.20;;;5.50;;
11651;SDS011;5882;48.818;9.114;2023-02-07T07:33:51;7.80;;;5.23;;
11651;SDS011;5882;48.818;9.114;2023-02-07T07:36:18;6.43;;;4.27;;
11651;SDS011;5882;48.818;9.114;2023-02-07T07:41:39;5.67;;;4.50;;
11651;SDS011;5882;48.818;9.114;2023-02-07T07:47:31;7.03;;;4.50;;
11651;SDS011;5882;48.818;9.114;2023-02-07T07:49:58;4.90;;;4.17;;
11651;SDS011;5882;48.818;9.114;2023-02-07T07:52:27;6.57;;;4.60;;
11651;SDS011;5882;48.818;9.114;2023-02-07T07:54:54;5.50;;;4.57;;
11651;SDS011;5882;48.818;9.114;2023-02-07T07:57:22;5.77;;;4.33;;
11651;SDS011;5882;48.818;9.114;2023-02-07T07:59:58;7.93;;;4.63;;
11651;SDS011;5882;48.818;9.114;2023-02-07T08:02:25;6.53;;;4.63;;
11651;SDS011;5882;48.818;9.114;2023-02-07T08:04:52;5.03;;;4.10;;
11651;SDS011;5882;48.818;9.114;2023-02-07T08:07:21;6.27;;;4.07;;
11651;SDS011;5882;48.818;9.114;2023-02-07T08:09:48;5.40;;;3.80;;
11651;SDS011;5882;48.818;9.114;2023-02-07T08:12:18;4.80;;;4.30;;
11651;SDS011;5882;48.818;9.114;2023-02-07T08:14:49;4.57;;;4.03;;
11651;SDS011;5882;48.818;9.114;2023-02-07T08:17:16;7.97;;;4.13;;
11651;SDS011;5882;48.818;9.114;2023-02-07T08:19:45;4.77;;;3.77;;
11651;SDS011;5882;48.818;9.114;2023-02-07T08:22:13;5.90;;;3.50;;
11651;SDS011;5882;48.818;9.114;2023-02-07T08:24:40;5.53;;;4.07;;
11651;SDS011;5882;48.818;9.114;2023-02-07T08:27:09;5.00;;;4.27;;
11651;SDS011;5882;48.818;9.114;2023-02-07T08:29:39;4.10;;;3.70;;
11651;SDS011;5882;48.818;9.114;2023-02-07T08:32:11;4.27;;;3.83;;
11651;SDS011;5882;48.818;9.114;2023-02-07T08:34:38;5.40;;;3.37;;
11651;SDS011;5882;48.818;9.114;2023-02-07T08:37:07;5.20;;;3.53;;
11651;SDS011;5882;48.818;9.114;2023-02-07T08:39:49;3.60;;;3.13;;
11651;SDS011;5882;48.818;9.114;2023-02-07T08:42:17;5.90;;;4.13;;
11651;SDS011;5882;48.818;9.114;2023-02-07T08:48:18;4.53;;;3.47;;
11651;SDS011;5882;48.818;9.114;2023-02-07T08:50:49;4.77;;;3.30;;
11651;SDS011;5882;48.818;9.114;2023-02-07T08:53:38;5.90;;;3.33;;
11651;SDS011;5882;48.818;9.114;2023-02-07T09:01:28;3.80;;;3.20;;
11651;SDS011;5882;48.818;9.114;2023-02-07T09:04:12;7.03;;;3.93;;
11651;SDS011;5882;48.818;9.114;2023-02-07T09:06:39;5.00;;;3.73;;
11651;SDS011;5882;48.818;9.114;2023-02-07T09:09:08;6.03;;;3.87;;
11651;SDS011;5882;48.818;9.114;2023-02-07T09:11:35;4.53;;;3.63;;
11651;SDS011;5882;48.818;9.114;2023-02-07T09:14:07;4.67;;;3.47;;
11651;SDS011;5882;48.818;9.114;2023-02-07T09:16:34;6.40;;;3.90;;
11651;SDS011;5882;48.818;9.114;2023-02-07T09:19:02;3.83;;;3.27;;
11651;SDS011;5882;48.818;9.114;2023-02-07T09:21:33;4.77;;;3.90;;
11651;SDS011;5882;48.818;9.114;2023-02-07T09:24:01;4.70;;;4.03;;
11651;SDS011;5882;48.818;9.114;2023-02-07T09:26:34;4.13;;;3.57;;
11651;SDS011;5882;48.818;9.114;2023-02-07T09:29:04;3.43;;;2.93;;
11651;SDS011;5882;48.818;9.114;2023-02-07T09:31:39;5.93;;;4.13;;
11651;SDS011;5882;48.818;9.114;2023-02-07T09:34:20;4.90;;;3.90;;
11651;SDS011;5882;48.818;9.114;2023-02-07T09:37:08;4.93;;;2.93;;
11651;SDS011;5882;48.818;9.114;2023-02-07T09:39:46;4.87;;;3.43;;
11651;SDS011;5882;48.818;9.114;2023-02-07T09:42:15;5.37;;;3.87;;
11651;SDS011;5882;48.818;9.114;2023-02-07T09:44:46;5.60;;;3.27;;
11651;SDS011;5882;48.818;9.114;2023-02-07T09:47:15;5.47;;;3.83;;
11651;SDS011;5882;48.818;9.114;2023-02-07T09:49:46;6.00;;;3.73;;
11651;SDS011;5882;48.818;9.114;2023-02-07T09:52:20;4.73;;;3.70;;
11651;SDS011;5882;48.818;9.114;2023-02-07T09:54:48;5.77;;;3.73;;
11651;SDS011;5882;48.818;9.114;2023-02-07T09:57:26;6.37;;;3.60;;
11651;SDS011;5882;48.818;9.114;2023-02-07T09:59:57;7.00;;;4.63;;
11651;SDS011;5882;48.818;9.114;2023-02-07T10:02:36;5.10;;;4.10;;
11651;SDS011;5882;48.818;9.114;2023-02-07T10:08:04;5.20;;;3.90;;
11651;SDS011;5882;48.818;9.114;2023-02-07T10:10:33;5.70;;;4.20;;
11651;SDS011;5882;48.818;9.114;2023-02-07T10:13:05;4.57;;;3.87;;
11651;SDS011;5882;48.818;9.114;2023-02-07T10:15:42;7.73;;;3.90;;
11651;SDS011;5882;48.818;9.114;2023-02-07T10:18:19;4.53;;;3.47;;
11651;SDS011;5882;48.818;9.114;2023-02-07T10:20:59;4.50;;;4.10;;
11651;SDS011;5882;48.818;9.114;2023-02-07T10:23:36;5.07;;;4.07;;
11651;SDS011;5882;48.818;9.114;2023-02-07T10:26:14;6.07;;;4.37;;
11651;SDS011;5882;48.818;9.114;2023-02-07T10:31:27;5.97;;;4.00;;
11651;SDS011;5882;48.818;9.114;2023-02-07T10:33:56;5.27;;;4.30;;
11651;SDS011;5882;48.818;9.114;2023-02-07T10:36:25;6.90;;;4.23;;
11651;SDS011;5882;48.818;9.114;2023-02-07T10:38:56;6.90;;;3.67;;
11651;SDS011;5882;48.818;9.114;2023-02-07T10:41:27;6.20;;;4.40;;
11651;SDS011;5882;48.818;9.114;2023-02-07T10:43:55;4.80;;;4.23;;
11651;SDS011;5882;48.818;9.114;2023-02-07T10:46:26;7.33;;;4.47;;
11651;SDS011;5882;48.818;9.114;2023-02-07T10:52:01;5.10;;;4.60;;
11651;SDS011;5882;48.818;9.114;2023-02-07T10:54:47;7.10;;;4.13;;
11651;SDS011;5882;48.818;9.114;2023-02-07T10:57:21;6.80;;;4.10;;
11651;SDS011;5882;48.818;9.114;2023-02-07T10:59:48;4.97;;;4.13;;
11651;SDS011;5882;48.818;9.114;2023-02-07T11:02:34;5.43;;;3.80;;
11651;SDS011;5882;48.818;9.114;2023-02-07T11:05:05;6.93;;;3.60;;
11651;SDS011;5882;48.818;9.114;2023-02-07T11:07:34;4.57;;;3.50;;
11651;SDS011;5882;48.818;9.114;2023-02-07T11:13:25;4.40;;;3.57;;
11651;SDS011;5882;48.818;9.114;2023-02-07T11:19:35;4.33;;;3.17;;
11651;SDS011;5882;48.818;9.114;2023-02-07T11:22:08;5.83;;;3.60;;
11651;SDS011;5882;48.818;9.114;2023-02-07T11:24:36;4.57;;;4.13;;
11651;SDS011;5882;48.818;9.114;2023-02-07T11:27:05;6.60;;;4.50;;
11651;SDS011;5882;48.818;9.114;2023-02-07T11:29:35;4.87;;;3.93;;
11651;SDS011;5882;48.818;9.114;2023-02-07T11:32:03;8.23;;;4.50;;
11651;SDS011;5882;48.818;9.114;2023-02-07T11:34:41;5.60;;;4.20;;
11651;SDS011;5882;48.818;9.114;2023-02-07T11:37:17;6.13;;;4.13;;
11651;SDS011;5882;48.818;9.114;2023-02-07T11:39:49;4.13;;;3.73;;
11651;SDS011;5882;48.818;9.114;2023-02-07T11:42:17;5.77;;;4.03;;
11651;SDS011;5882;48.818;9.114;2023-02-07T11:44:46;5.57;;;4.30;;
11651;SDS011;5882;48.818;9.114;2023-02-07T11:47:17;6.13;;;4.13;;
11651;SDS011;5882;48.818;9.114;2023-02-07T11:50:10;5.20;;;4.37;;
11651;SDS011;5882;48.818;9.114;2023-02-07T11:52:47;6.30;;;4.40;;
11651;SDS011;5882;48.818;9.114;2023-02-07T11:55:24;6.07;;;4.17;;
11651;SDS011;5882;48.818;9.114;2023-02-07T11:57:53;5.77;;;4.20;;
11651;SDS011;5882;48.818;9.114;2023-02-07T12:00:26;6.20;;;3.93;;
11651;SDS011;5882;48.818;9.114;2023-02-07T12:02:58;6.53;;;4.73;;
11651;SDS011;5882;48.818;9.114;2023-02-07T12:05:29;5.17;;;4.43;;
11651;SDS011;5882;48.818;9.114;2023-02-07T12:07:57;5.30;;;4.60;;
11651;SDS011;5882;48.818;9.114;2023-02-07T12:10:26;5.30;;;4.70;;
11651;SDS011;5882;48.818;9.114;2023-02-07T12:12:55;6.93;;;4.27;;
11651;SDS011;5882;48.818;9.114;2023-02-07T12:15:24;5.97;;;4.43;;
11651;SDS011;5882;48.818;9.114;2023-02-07T12:17:57;4.57;;;3.87;;
11651;SDS011;5882;48.818;9.114;2023-02-07T12:20:27;4.73;;;3.87;;
11651;SDS011;5882;48.818;9.114;2023-02-07T12:22:57;5.77;;;4.30;;
11651;SDS011;5882;48.818;9.114;2023-02-07T12:25:27;5.20;;;4.70;;
11651;SDS011;5882;48.818;9.114;2023-02-07T12:27:58;5.47;;;4.23;;
11651;SDS011;5882;48.818;9.114;2023-02-07T12:30:27;5.93;;;4.43;;
11651;SDS011;5882;48.818;9.114;2023-02-07T12:33:35;5.70;;;5.10;;
11651;SDS011;5882;48.818;9.114;2023-02-07T12:36:11;4.87;;;3.87;;
11651;SDS011;5882;48.818;9.114;2023-02-07T12:38:41;8.60;;;4.70;;
11651;SDS011;5882;48.818;9.114;2023-02-07T12:41:11;5.60;;;4.00;;
11651;SDS011;5882;48.818;9.114;2023-02-07T12:43:41;4.83;;;4.20;;
11651;SDS011;5882;48.818;9.114;2023-02-07T12:46:14;5.60;;;4.23;;
11651;SDS011;5882;48.818;9.114;2023-02-07T12:48:50;6.30;;;4.63;;
11651;SDS011;5882;48.818;9.114;2023-02-07T12:51:23;5.50;;;4.37;;
11651;SDS011;5882;48.818;9.114;2023-02-07T12:57:16;5.43;;;4.00;;
11651;SDS011;5882;48.818;9.114;2023-02-07T12:59:51;6.33;;;5.13;;
11651;SDS011;5882;48.818;9.114;2023-02-07T13:02:31;5.37;;;3.97;;
11651;SDS011;5882;48.818;9.114;2023-02-07T13:07:58;6.03;;;4.33;;
11651;SDS011;5882;48.818;9.114;2023-02-07T13:10:31;6.10;;;4.43;;
11651;SDS011;5882;48.818;9.114;2023-02-07T13:13:05;6.33;;;4.50;;
11651;SDS011;5882;48.818;9.114;2023-02-07T13:15:51;6.77;;;5.47;;
11651;SDS011;5882;48.818;9.114;2023-02-07T13:18:33;7.67;;;4.60;;
11651;SDS011;5882;48.818;9.114;2023-02-07T13:21:04;9.50;;;4.63;;
11651;SDS011;5882;48.818;9.114;2023-02-07T13:26:20;4.47;;;3.95;;
11651;SDS011;5882;48.818;9.114;2023-02-07T13:28:50;6.33;;;4.13;;
11651;SDS011;5882;48.818;9.114;2023-02-07T13:31:20;6.82;;;4.40;;
11651;SDS011;5882;48.818;9.114;2023-02-07T13:33:48;5.57;;;3.93;;
11651;SDS011;5882;48.818;9.114;2023-02-07T13:36:17;5.43;;;4.43;;
11651;SDS011;5882;48.818;9.114;2023-02-07T13:38:48;6.20;;;4.17;;
11651;SDS011;5882;48.818;9.114;2023-02-07T13:41:18;5.97;;;4.07;;
11651;SDS011;5882;48.818;9.114;2023-02-07T13:43:52;5.80;;;4.07;;
11651;SDS011;5882;48.818;9.114;2023-02-07T13:49:35;5.23;;;3.67;;
11651;SDS011;5882;48.818;9.114;2023-02-07T13:55:59;4.13;;;3.00;;
11651;SDS011;5882;48.818;9.114;2023-02-07T14:01:28;6.10;;;4.23;;
11651;SDS011;5882;48.818;9.114;2023-02-07T14:04:06;4.88;;;3.55;;
11651;SDS011;5882;48.818;9.114;2023-02-07T14:06:34;6.18;;;3.47;;
11651;SDS011;5882;48.818;9.114;2023-02-07T14:09:03;5.15;;;3.53;;
11651;SDS011;5882;48.818;9.114;2023-02-07T14:11:37;5.63;;;3.70;;
11651;SDS011;5882;48.818;9.114;2023-02-07T14:14:05;5.13;;;4.10;;
11651;SDS011;5882;48.818;9.114;2023-02-07T14:16:44;5.65;;;3.88;;
11651;SDS011;5882;48.818;9.114;2023-02-07T14:19:14;5.93;;;3.83;;
11651;SDS011;5882;48.818;9.114;2023-02-07T14:21:44;5.95;;;3.78;;
11651;SDS011;5882;48.818;9.114;2023-02-07T14:24:17;6.13;;;3.67;;
11651;SDS011;5882;48.818;9.114;2023-02-07T14:30:18;6.23;;;4.13;;
11651;SDS011;5882;48.818;9.114;2023-02-07T14:35:34;4.07;;;3.50;;
11651;SDS011;5882;48.818;9.114;2023-02-07T14:38:38;4.57;;;3.60;;
11651;SDS011;5882;48.818;9.114;2023-02-07T14:41:25;5.68;;;4.13;;
11651;SDS011;5882;48.818;9.114;2023-02-07T14:47:22;3.80;;;3.15;;
11651;SDS011;5882;48.818;9.114;2023-02-07T14:49:52;3.88;;;2.95;;
11651;SDS011;5882;48.818;9.114;2023-02-07T14:52:48;4.57;;;3.55;;
11651;SDS011;5882;48.818;9.114;2023-02-07T14:58:39;5.90;;;3.67;;
11651;SDS011;5882;48.818;9.114;2023-02-07T15:01:16;4.07;;;3.45;;
11651;SDS011;5882;48.818;9.114;2023-02-07T15:07:18;3.50;;;3.17;;
11651;SDS011;5882;48.818;9.114;2023-02-07T15:09:58;3.92;;;3.20;;
11651;SDS011;5882;48.818;9.114;2023-02-07T15:12:27;3.53;;;3.13;;
11651;SDS011;5882;48.818;9.114;2023-02-07T15:14:55;3.50;;;3.17;;
11651;SDS011;5882;48.818;9.114;2023-02-07T15:17:24;5.05;;;3.65;;
11651;SDS011;5882;48.818;9.114;2023-02-07T15:19:53;5.50;;;3.33;;
11651;SDS011;5882;48.818;9.114;2023-02-07T15:22:34;4.18;;;3.38;;
11651;SDS011;5882;48.818;9.114;2023-02-07T15:25:02;4.88;;;3.15;;
11651;SDS011;5882;48.818;9.114;2023-02-07T15:27:29;4.15;;;3.20;;
11651;SDS011;5882;48.818;9.114;2023-02-07T15:32:57;3.22;;;2.92;;
11651;SDS011;5882;48.818;9.114;2023-02-07T15:35:24;3.83;;;3.45;;
11651;SDS011;5882;48.818;9.114;2023-02-07T15:37:52;16.23;;;7.50;;
11651;SDS011;5882;48.818;9.114;2023-02-07T15:52:29;3.63;;;2.78;;
11651;SDS011;5882;48.818;9.114;2023-02-07T15:54:57;3.80;;;2.95;;
11651;SDS011;5882;48.818;9.114;2023-02-07T15:57:26;5.73;;;3.63;;
11651;SDS011;5882;48.818;9.114;2023-02-07T15:59:54;3.90;;;3.00;;
11651;SDS011;5882;48.818;9.114;2023-02-07T16:02:22;6.28;;;3.13;;
11651;SDS011;5882;48.818;9.114;2023-02-07T16:04:50;6.17;;;3.30;;
11651;SDS011;5882;48.818;9.114;2023-02-07T16:07:17;5.75;;;3.30;;
11651;SDS011;5882;48.818;9.114;2023-02-07T16:13:08;4.17;;;3.40;;
11651;SDS011;5882;48.818;9.114;2023-02-07T16:15:37;2.95;;;2.40;;
11651;SDS011;5882;48.818;9.114;2023-02-07T16:18:04;3.67;;;2.80;;
11651;SDS011;5882;48.818;9.114;2023-02-07T16:20:47;3.92;;;2.60;;
11651;SDS011;5882;48.818;9.114;2023-02-07T16:26:27;2.60;;;2.27;;
11651;SDS011;5882;48.818;9.114;2023-02-07T16:29:05;3.40;;;2.90;;
11651;SDS011;5882;48.818;9.114;2023-02-07T16:31:35;2.70;;;2.47;;
11651;SDS011;5882;48.818;9.114;2023-02-07T16:34:03;2.30;;;2.10;;
11651;SDS011;5882;48.818;9.114;2023-02-07T16:36:30;4.47;;;2.63;;
11651;SDS011;5882;48.818;9.114;2023-02-07T16:38:57;2.70;;;2.33;;
11651;SDS011;5882;48.818;9.114;2023-02-07T16:41:24;3.40;;;3.00;;
11651;SDS011;5882;48.818;9.114;2023-02-07T16:43:55;4.33;;;2.53;;
11651;SDS011;5882;48.818;9.114;2023-02-07T16:46:25;3.03;;;2.73;;
11651;SDS011;5882;48.818;9.114;2023-02-07T16:48:52;3.40;;;2.33;;
11651;SDS011;5882;48.818;9.114;2023-02-07T16:51:19;4.00;;;2.73;;
11651;SDS011;5882;48.818;9.114;2023-02-07T16:53:46;3.27;;;2.73;;
11651;SDS011;5882;48.818;9.114;2023-02-07T16:56:14;3.47;;;2.83;;
11651;SDS011;5882;48.818;9.114;2023-02-07T16:58:44;3.20;;;2.90;;
11651;SDS011;5882;48.818;9.114;2023-02-07T17:01:14;3.43;;;3.00;;
11651;SDS011;5882;48.818;9.114;2023-02-07T17:03:44;3.73;;;2.73;;
11651;SDS011;5882;48.818;9.114;2023-02-07T17:06:13;4.30;;;2.57;;
11651;SDS011;5882;48.818;9.114;2023-02-07T17:08:40;3.57;;;2.97;;
11651;SDS011;5882;48.818;9.114;2023-02-07T17:11:12;4.40;;;3.27;;
11651;SDS011;5882;48.818;9.114;2023-02-07T17:13:45;4.03;;;2.40;;